ADDS METAR Data INFO
IDs: Format: Raw Decoded Include TAF

Data at: 1245 UTC 19 Oct 2017

KXSA 191235Z AUTO 00000KT 10SM CLR A3030 RMK AO2
KXSA 191215Z AUTO 00000KT 10SM CLR A3030 RMK AO2
KXSA 191155Z AUTO 00000KT 10SM CLR A3030 RMK AO2
KXSA 191135Z AUTO 00000KT 10SM CLR A3030 RMK AO2
KXSA 191115Z AUTO 00000KT 10SM CLR A3030 RMK AO2
KXSA 191055Z AUTO 00000KT 10SM CLR A3029 RMK AO2
KXSA 191035Z AUTO 00000KT 10SM CLR A3030 RMK AO2
KXSA 191015Z AUTO 00000KT 10SM CLR A3029 RMK AO2
KXSA 190955Z AUTO 00000KT 10SM CLR A3030 RMK AO2
KXSA 190935Z AUTO 00000KT 10SM CLR A3030 RMK AO2
KXSA 190915Z AUTO 00000KT 10SM CLR A3030 RMK AO2
KXSA 190855Z AUTO 00000KT 10SM CLR A3030 RMK AO2
KXSA 190835Z AUTO 00000KT 10SM CLR A3029 RMK AO2
KXSA 190815Z AUTO 00000KT 10SM CLR A3029 RMK AO2
KXSA 190755Z AUTO 00000KT 10SM CLR A3030 RMK AO2
KXSA 190735Z AUTO 00000KT 10SM CLR A3031 RMK AO2
KXSA 190715Z AUTO 00000KT 10SM CLR A3030 RMK AO2
KXSA 190655Z AUTO 00000KT 10SM CLR A3031 RMK AO2
KXSA 190635Z AUTO 00000KT 10SM CLR A3031 RMK AO2
KXSA 190615Z AUTO 00000KT 10SM CLR A3032 RMK AO2
KXSA 190555Z AUTO 00000KT 10SM CLR A3032 RMK AO2
KXSA 190535Z AUTO 00000KT 10SM CLR A3033 RMK AO2
KXSA 190515Z AUTO 00000KT 10SM CLR A3033 RMK AO2
KXSA 190455Z AUTO 00000KT 10SM CLR A3033 RMK AO2
KXSA 190435Z AUTO 00000KT 10SM CLR A3033 RMK AO2
KXSA 190415Z AUTO 19003KT 10SM CLR A3033 RMK AO2
KXSA 190355Z AUTO 00000KT 10SM CLR A3034 RMK AO2
KXSA 190335Z AUTO 00000KT 10SM CLR A3034 RMK AO2
KXSA 190315Z AUTO 00000KT 10SM CLR 08/08 A3033 RMK AO2 T00790079
KXSA 190255Z AUTO 00000KT 10SM CLR A3033 RMK AO2
KXSA 190235Z AUTO 00000KT 10SM CLR A3033 RMK AO2
KXSA 190215Z AUTO 00000KT 10SM CLR 08/08 A3033 RMK AO2 T00800080
KXSA 190155Z AUTO 00000KT 10SM CLR 09/09 A3034 RMK AO2 T00860086
KXSA 190135Z AUTO 00000KT 10SM CLR 09/09 A3034 RMK AO2 T00910091
KXSA 190115Z AUTO 00000KT 10SM CLR 10/10 A3034 RMK AO2 T00950095
KXSA 190055Z AUTO 00000KT 10SM CLR 10/09 A3034 RMK AO2 T00980091
KXSA 190035Z AUTO 00000KT 10SM CLR 10/10 A3034 RMK AO2 T00990099
KXSA 190015Z AUTO 00000KT 10SM CLR 10/09 A3033 RMK AO2 T01010087
KXSA 182355Z AUTO 00000KT 10SM CLR 11/07 A3033 RMK AO2 T01060074 10216 20105
KXSA 182335Z AUTO 00000KT 10SM CLR 11/04 A3033 RMK AO2 T01110044
KXSA 182315Z AUTO 00000KT 10SM CLR 13/04 A3033 RMK AO2 T01250039
KXSA 182255Z AUTO 00000KT 10SM CLR 13/03 A3033 RMK AO2 T01330031
KXSA 182235Z AUTO 00000KT 10SM CLR 14/03 A3033 RMK AO2 T01410027
KXSA 182215Z AUTO 19003KT 10SM CLR 18/00 A3032 RMK AO2 T01761005
KXSA 182155Z AUTO 18003KT 10SM CLR 19/M01 A3032 RMK AO2 T01931014
KXSA 182135Z AUTO 00000KT 10SM CLR 20/M02 A3032 RMK AO2 T02031018
KXSA 182115Z AUTO 17003KT 10SM CLR 21/M02 A3033 RMK AO2 T02061023
KXSA 182055Z AUTO 18003KT 10SM CLR 21/M02 A3033 RMK AO2 T02091025
KXSA 182035Z AUTO 00000KT 10SM CLR 21/M02 A3033 RMK AO2 T02131025
KXSA 182015Z AUTO 00000KT 10SM CLR 21/M03 A3034 RMK AO2 T02101032
KXSA 181955Z AUTO 10004KT 10SM CLR 21/M03 A3034 RMK AO2 T02131032
KXSA 181935Z AUTO 09005KT 7SM CLR 21/M04 A3034 RMK AO2 T02141039
KXSA 181915Z AUTO 14004KT 10SM CLR 21/M03 A3035 RMK AO2 T02111033
KXSA 181855Z AUTO 00000KT 10SM CLR 21/M03 A3035 RMK AO2 T02101030
KXSA 181835Z AUTO 14006KT 10SM CLR 21/M03 A3036 RMK AO2 T02101026
KXSA 181815Z AUTO 07005KT 10SM CLR 21/M02 A3036 RMK AO2 T02091023
KXSA 181755Z AUTO 15005KT 10SM CLR 21/M02 A3037 RMK AO2 T02061023 10206 20091
KXSA 181735Z AUTO 00000KT 10SM CLR 20/M02 A3038 RMK AO2 T02021019
KXSA 181715Z AUTO 20003KT 10SM CLR 20/M02 A3039 RMK AO2 T01971018
KXSA 181655Z AUTO 11003KT 10SM CLR 20/M02 A3041 RMK AO2 T01961019
KXSA 181635Z AUTO 07003KT 10SM CLR 19/M02 A3041 RMK AO2 T01921018
KXSA 181615Z AUTO 09003KT 10SM CLR 19/M01 A3042 RMK AO2 T01861010
KXSA 181555Z AUTO 00000KT 10SM CLR 18/M01 A3042 RMK AO2 T01781013
KXSA 181535Z AUTO 00000KT 10SM CLR 17/00 A3042 RMK AO2 T01701003
KXSA 181515Z AUTO 17003KT 10SM CLR 17/01 A3042 RMK AO2 T01660005
KXSA 181455Z AUTO 00000KT 10SM CLR 16/02 A3042 RMK AO2 T01570023
KXSA 181435Z AUTO 23004KT 10SM CLR 15/04 A3042 RMK AO2 T01500039
KXSA 181415Z AUTO 25004KT 10SM CLR 14/05 A3042 RMK AO2 T01400048
KXSA 181355Z AUTO 00000KT 10SM CLR 13/06 A3042 RMK AO2 T01280055
KXSA 181335Z AUTO 00000KT 10SM CLR 12/07 A3042 RMK AO2 T01170069
KXSA 181315Z AUTO 00000KT 10SM CLR 11/07 A3042 RMK AO2 T01050066
KXSA 181255Z AUTO 00000KT 10SM CLR 09/08 A3041 RMK AO2 T00910080
KXSA 181235Z AUTO 00000KT 10SM CLR A3040 RMK AO2
KXSA 181215Z AUTO 00000KT 10SM CLR A3039 RMK AO2
KXSA 181155Z AUTO 00000KT 10SM CLR A3038 RMK AO2
KXSA 181135Z AUTO 00000KT 10SM CLR A3038 RMK AO2
KXSA 181115Z AUTO 00000KT 10SM CLR A3038 RMK AO2
KXSA 181055Z AUTO 00000KT 10SM CLR A3038 RMK AO2
KXSA 181035Z AUTO 00000KT 10SM CLR A3038 RMK AO2
KXSA 181015Z AUTO 00000KT 10SM CLR A3037 RMK AO2
KXSA 180955Z AUTO 00000KT 10SM CLR A3036 RMK AO2
KXSA 180935Z AUTO 00000KT 10SM CLR A3036 RMK AO2
KXSA 180915Z AUTO 00000KT 10SM CLR A3036 RMK AO2
KXSA 180855Z AUTO 00000KT 10SM CLR A3035 RMK AO2
KXSA 180835Z AUTO 00000KT 10SM CLR A3034 RMK AO2
KXSA 180815Z AUTO 00000KT 10SM CLR A3034 RMK AO2
KXSA 180755Z AUTO 00000KT 10SM CLR A3034 RMK AO2
KXSA 180735Z AUTO 00000KT 10SM CLR A3034 RMK AO2
KXSA 180715Z AUTO 00000KT 10SM CLR A3035 RMK AO2
KXSA 180655Z AUTO 00000KT 10SM CLR A3035 RMK AO2
KXSA 180635Z AUTO 00000KT 10SM CLR A3035 RMK AO2
KXSA 180615Z AUTO 00000KT 10SM CLR A3035 RMK AO2
KXSA 180555Z AUTO 00000KT 10SM CLR A3035 RMK AO2
KXSA 180535Z AUTO 00000KT 10SM CLR A3035 RMK AO2
KXSA 180515Z AUTO 00000KT 10SM CLR A3035 RMK AO2
KXSA 180455Z AUTO 00000KT 10SM CLR A3035 RMK AO2
KXSA 180435Z AUTO 00000KT 10SM CLR A3035 RMK AO2
KXSA 180415Z AUTO 00000KT 10SM CLR A3035 RMK AO2
KXSA 180355Z AUTO 00000KT 10SM CLR A3036 RMK AO2
KXSA 180335Z AUTO 00000KT 10SM CLR A3036 RMK AO2
KXSA 180320Z AUTO 00000KT 10SM CLR A3035 RMK AO2
KXSA 180255Z AUTO 00000KT 10SM CLR A3036 RMK AO2
KXSA 180235Z AUTO 00000KT 10SM CLR A3036 RMK AO2
KXSA 180215Z AUTO 00000KT 10SM CLR A3035 RMK AO2
KXSA 180155Z AUTO 00000KT 10SM CLR A3035 RMK AO2
KXSA 180135Z AUTO 00000KT 10SM CLR A3035 RMK AO2
KXSA 180115Z AUTO 00000KT 10SM CLR A3034 RMK AO2
KXSA 180055Z AUTO 00000KT 10SM CLR 07/07 A3034 RMK AO2 T00680068